sensor_id;sensor_type;location;lat;lon;timestamp;P1;durP1;ratioP1;P2;durP2;ratioP2
11572;SDS011;5842;52.426;4.886;2023-01-01T00:00:30;57.93;;;40.30;;
11572;SDS011;5842;52.426;4.886;2023-01-01T00:02:58;60.67;;;41.30;;
11572;SDS011;5842;52.426;4.886;2023-01-01T00:05:26;58.80;;;41.80;;
11572;SDS011;5842;52.426;4.886;2023-01-01T00:07:53;61.80;;;43.57;;
11572;SDS011;5842;52.426;4.886;2023-01-01T00:10:21;54.10;;;40.47;;
11572;SDS011;5842;52.426;4.886;2023-01-01T00:12:55;56.60;;;41.43;;
11572;SDS011;5842;52.426;4.886;2023-01-01T00:15:23;57.30;;;41.67;;
11572;SDS011;5842;52.426;4.886;2023-01-01T00:17:51;60.87;;;39.40;;
11572;SDS011;5842;52.426;4.886;2023-01-01T00:20:19;62.37;;;40.03;;
11572;SDS011;5842;52.426;4.886;2023-01-01T00:22:49;59.70;;;40.10;;
11572;SDS011;5842;52.426;4.886;2023-01-01T00:25:17;55.50;;;38.80;;
11572;SDS011;5842;52.426;4.886;2023-01-01T00:27:44;61.03;;;42.03;;
11572;SDS011;5842;52.426;4.886;2023-01-01T00:30:14;61.23;;;40.97;;
11572;SDS011;5842;52.426;4.886;2023-01-01T00:32:41;58.47;;;41.03;;
11572;SDS011;5842;52.426;4.886;2023-01-01T00:35:09;57.97;;;38.77;;
11572;SDS011;5842;52.426;4.886;2023-01-01T00:37:40;50.27;;;34.30;;
11572;SDS011;5842;52.426;4.886;2023-01-01T00:40:10;46.87;;;34.37;;
11572;SDS011;5842;52.426;4.886;2023-01-01T00:42:38;54.13;;;35.13;;
11572;SDS011;5842;52.426;4.886;2023-01-01T00:45:06;49.97;;;33.97;;
11572;SDS011;5842;52.426;4.886;2023-01-01T00:47:36;46.00;;;33.00;;
11572;SDS011;5842;52.426;4.886;2023-01-01T00:50:05;48.80;;;32.30;;
11572;SDS011;5842;52.426;4.886;2023-01-01T00:52:32;46.53;;;29.87;;
11572;SDS011;5842;52.426;4.886;2023-01-01T00:55:05;46.77;;;30.37;;
11572;SDS011;5842;52.426;4.886;2023-01-01T00:57:33;46.97;;;29.87;;
11572;SDS011;5842;52.426;4.886;2023-01-01T01:00:00;44.07;;;30.30;;
11572;SDS011;5842;52.426;4.886;2023-01-01T01:02:28;43.17;;;29.63;;
11572;SDS011;5842;52.426;4.886;2023-01-01T01:04:57;41.63;;;26.83;;
11572;SDS011;5842;52.426;4.886;2023-01-01T01:07:25;42.53;;;27.53;;
11572;SDS011;5842;52.426;4.886;2023-01-01T01:09:52;37.60;;;23.43;;
11572;SDS011;5842;52.426;4.886;2023-01-01T01:12:20;31.77;;;20.20;;
11572;SDS011;5842;52.426;4.886;2023-01-01T01:14:48;30.43;;;19.13;;
11572;SDS011;5842;52.426;4.886;2023-01-01T01:17:18;25.73;;;15.93;;
11572;SDS011;5842;52.426;4.886;2023-01-01T01:19:45;23.90;;;15.03;;
11572;SDS011;5842;52.426;4.886;2023-01-01T01:22:17;25.07;;;14.70;;
11572;SDS011;5842;52.426;4.886;2023-01-01T01:24:45;26.60;;;15.27;;
11572;SDS011;5842;52.426;4.886;2023-01-01T01:27:12;21.43;;;13.33;;
11572;SDS011;5842;52.426;4.886;2023-01-01T01:29:39;21.47;;;12.80;;
11572;SDS011;5842;52.426;4.886;2023-01-01T01:35:26;22.27;;;11.70;;
11572;SDS011;5842;52.426;4.886;2023-01-01T01:47:08;13.63;;;7.30;;
11572;SDS011;5842;52.426;4.886;2023-01-01T01:49:40;15.37;;;7.90;;
11572;SDS011;5842;52.426;4.886;2023-01-01T01:58:26;12.00;;;6.57;;
11572;SDS011;5842;52.426;4.886;2023-01-01T02:01:07;15.23;;;6.83;;
11572;SDS011;5842;52.426;4.886;2023-01-01T02:03:39;12.40;;;6.67;;
11572;SDS011;5842;52.426;4.886;2023-01-01T02:06:21;11.37;;;5.93;;
11572;SDS011;5842;52.426;4.886;2023-01-01T02:08:51;15.03;;;5.97;;
11572;SDS011;5842;52.426;4.886;2023-01-01T02:11:19;12.97;;;5.20;;
11572;SDS011;5842;52.426;4.886;2023-01-01T02:13:47;12.20;;;5.33;;
11572;SDS011;5842;52.426;4.886;2023-01-01T02:16:16;12.20;;;5.20;;
11572;SDS011;5842;52.426;4.886;2023-01-01T02:18:56;12.60;;;5.00;;
11572;SDS011;5842;52.426;4.886;2023-01-01T02:21:27;12.30;;;4.60;;
11572;SDS011;5842;52.426;4.886;2023-01-01T02:24:03;10.13;;;4.60;;
11572;SDS011;5842;52.426;4.886;2023-01-01T02:26:46;12.67;;;4.40;;
11572;SDS011;5842;52.426;4.886;2023-01-01T02:29:22;13.53;;;4.80;;
11572;SDS011;5842;52.426;4.886;2023-01-01T02:31:56;15.57;;;4.60;;
11572;SDS011;5842;52.426;4.886;2023-01-01T02:34:39;12.33;;;4.30;;
11572;SDS011;5842;52.426;4.886;2023-01-01T02:37:13;11.97;;;3.90;;
11572;SDS011;5842;52.426;4.886;2023-01-01T02:40:02;14.20;;;4.43;;
11572;SDS011;5842;52.426;4.886;2023-01-01T02:42:30;10.87;;;3.73;;
11572;SDS011;5842;52.426;4.886;2023-01-01T02:45:00;9.17;;;3.70;;
11572;SDS011;5842;52.426;4.886;2023-01-01T02:47:28;11.60;;;4.10;;
11572;SDS011;5842;52.426;4.886;2023-01-01T02:49:58;8.90;;;3.40;;
11572;SDS011;5842;52.426;4.886;2023-01-01T02:52:35;12.17;;;4.13;;
11572;SDS011;5842;52.426;4.886;2023-01-01T02:55:10;7.83;;;3.57;;
11572;SDS011;5842;52.426;4.886;2023-01-01T02:57:41;10.37;;;3.63;;
11572;SDS011;5842;52.426;4.886;2023-01-01T03:00:19;16.97;;;4.17;;
11572;SDS011;5842;52.426;4.886;2023-01-01T03:03:03;12.77;;;3.87;;
11572;SDS011;5842;52.426;4.886;2023-01-01T03:05:33;12.53;;;4.10;;
11572;SDS011;5842;52.426;4.886;2023-01-01T03:08:23;12.07;;;3.63;;
11572;SDS011;5842;52.426;4.886;2023-01-01T03:10:54;11.00;;;3.30;;
11572;SDS011;5842;52.426;4.886;2023-01-01T03:13:24;9.10;;;3.50;;
11572;SDS011;5842;52.426;4.886;2023-01-01T03:15:58;8.83;;;3.27;;
11572;SDS011;5842;52.426;4.886;2023-01-01T03:18:30;9.87;;;3.80;;
11572;SDS011;5842;52.426;4.886;2023-01-01T03:20:59;8.00;;;3.40;;
11572;SDS011;5842;52.426;4.886;2023-01-01T03:23:30;8.53;;;3.30;;
11572;SDS011;5842;52.426;4.886;2023-01-01T03:26:02;12.50;;;3.63;;
11572;SDS011;5842;52.426;4.886;2023-01-01T03:28:31;10.57;;;3.47;;
11572;SDS011;5842;52.426;4.886;2023-01-01T03:31:01;10.20;;;3.33;;
11572;SDS011;5842;52.426;4.886;2023-01-01T03:33:30;11.27;;;3.30;;
11572;SDS011;5842;52.426;4.886;2023-01-01T03:35:59;14.37;;;4.07;;
11572;SDS011;5842;52.426;4.886;2023-01-01T03:38:28;11.77;;;3.23;;
11572;SDS011;5842;52.426;4.886;2023-01-01T03:40:57;9.57;;;3.30;;
11572;SDS011;5842;52.426;4.886;2023-01-01T03:43:28;13.03;;;3.40;;
11572;SDS011;5842;52.426;4.886;2023-01-01T03:45:58;13.60;;;3.70;;
11572;SDS011;5842;52.426;4.886;2023-01-01T03:48:28;16.53;;;3.40;;
11572;SDS011;5842;52.426;4.886;2023-01-01T03:51:18;11.80;;;3.23;;
11572;SDS011;5842;52.426;4.886;2023-01-01T03:53:47;8.67;;;2.77;;
11572;SDS011;5842;52.426;4.886;2023-01-01T03:56:18;11.77;;;2.60;;
11572;SDS011;5842;52.426;4.886;2023-01-01T03:58:48;12.57;;;3.50;;
11572;SDS011;5842;52.426;4.886;2023-01-01T04:01:19;11.83;;;2.63;;
11572;SDS011;5842;52.426;4.886;2023-01-01T04:03:50;9.33;;;2.50;;
11572;SDS011;5842;52.426;4.886;2023-01-01T04:06:18;7.33;;;2.27;;
11572;SDS011;5842;52.426;4.886;2023-01-01T04:08:49;9.03;;;2.00;;
11572;SDS011;5842;52.426;4.886;2023-01-01T04:11:18;6.20;;;1.83;;
11572;SDS011;5842;52.426;4.886;2023-01-01T04:14:04;8.37;;;2.10;;
11572;SDS011;5842;52.426;4.886;2023-01-01T04:16:32;6.67;;;2.07;;
11572;SDS011;5842;52.426;4.886;2023-01-01T04:19:01;8.43;;;1.90;;
11572;SDS011;5842;52.426;4.886;2023-01-01T04:21:31;5.83;;;2.10;;
11572;SDS011;5842;52.426;4.886;2023-01-01T04:23:58;7.83;;;2.40;;
11572;SDS011;5842;52.426;4.886;2023-01-01T04:26:25;8.70;;;2.50;;
11572;SDS011;5842;52.426;4.886;2023-01-01T04:28:53;4.40;;;1.67;;
11572;SDS011;5842;52.426;4.886;2023-01-01T04:31:21;7.50;;;2.30;;
11572;SDS011;5842;52.426;4.886;2023-01-01T04:33:52;5.33;;;1.93;;
11572;SDS011;5842;52.426;4.886;2023-01-01T04:36:21;8.93;;;2.30;;
11572;SDS011;5842;52.426;4.886;2023-01-01T04:38:49;6.80;;;1.93;;
11572;SDS011;5842;52.426;4.886;2023-01-01T04:41:16;5.70;;;1.97;;
11572;SDS011;5842;52.426;4.886;2023-01-01T04:43:45;8.23;;;1.50;;
11572;SDS011;5842;52.426;4.886;2023-01-01T04:46:14;6.13;;;1.57;;
11572;SDS011;5842;52.426;4.886;2023-01-01T04:48:42;6.10;;;1.47;;
11572;SDS011;5842;52.426;4.886;2023-01-01T04:51:10;6.73;;;1.70;;
11572;SDS011;5842;52.426;4.886;2023-01-01T04:53:39;6.03;;;2.27;;
11572;SDS011;5842;52.426;4.886;2023-01-01T04:56:07;8.57;;;1.70;;
11572;SDS011;5842;52.426;4.886;2023-01-01T04:58:35;10.10;;;2.10;;
11572;SDS011;5842;52.426;4.886;2023-01-01T05:01:03;11.10;;;2.00;;
11572;SDS011;5842;52.426;4.886;2023-01-01T05:03:30;9.17;;;2.00;;
11572;SDS011;5842;52.426;4.886;2023-01-01T05:05:58;11.97;;;2.20;;
11572;SDS011;5842;52.426;4.886;2023-01-01T05:08:26;11.17;;;2.10;;
11572;SDS011;5842;52.426;4.886;2023-01-01T05:10:59;12.20;;;2.40;;
11572;SDS011;5842;52.426;4.886;2023-01-01T05:13:30;11.07;;;2.70;;
11572;SDS011;5842;52.426;4.886;2023-01-01T05:16:00;12.20;;;2.87;;
11572;SDS011;5842;52.426;4.886;2023-01-01T05:18:28;11.07;;;2.47;;
11572;SDS011;5842;52.426;4.886;2023-01-01T05:20:57;16.03;;;2.50;;
11572;SDS011;5842;52.426;4.886;2023-01-01T05:23:25;10.37;;;2.70;;
11572;SDS011;5842;52.426;4.886;2023-01-01T05:25:53;12.87;;;2.60;;
11572;SDS011;5842;52.426;4.886;2023-01-01T05:28:22;14.13;;;2.47;;
11572;SDS011;5842;52.426;4.886;2023-01-01T05:30:49;12.00;;;3.47;;
11572;SDS011;5842;52.426;4.886;2023-01-01T05:33:17;13.60;;;2.57;;
11572;SDS011;5842;52.426;4.886;2023-01-01T05:35:44;19.30;;;3.20;;
11572;SDS011;5842;52.426;4.886;2023-01-01T05:38:12;15.23;;;2.90;;
11572;SDS011;5842;52.426;4.886;2023-01-01T05:40:39;16.37;;;2.83;;
11572;SDS011;5842;52.426;4.886;2023-01-01T05:43:06;15.90;;;2.80;;
11572;SDS011;5842;52.426;4.886;2023-01-01T05:45:35;13.43;;;3.27;;
11572;SDS011;5842;52.426;4.886;2023-01-01T05:48:03;11.03;;;2.67;;
11572;SDS011;5842;52.426;4.886;2023-01-01T05:50:31;14.30;;;3.50;;
11572;SDS011;5842;52.426;4.886;2023-01-01T05:52:58;16.37;;;2.93;;
11572;SDS011;5842;52.426;4.886;2023-01-01T05:55:25;16.13;;;3.37;;
11572;SDS011;5842;52.426;4.886;2023-01-01T05:57:53;11.43;;;2.93;;
11572;SDS011;5842;52.426;4.886;2023-01-01T06:00:21;13.93;;;2.70;;
11572;SDS011;5842;52.426;4.886;2023-01-01T06:02:50;15.47;;;2.87;;
11572;SDS011;5842;52.426;4.886;2023-01-01T06:05:18;19.00;;;3.67;;
11572;SDS011;5842;52.426;4.886;2023-01-01T06:07:46;16.37;;;3.10;;
11572;SDS011;5842;52.426;4.886;2023-01-01T06:10:13;15.93;;;3.07;;
11572;SDS011;5842;52.426;4.886;2023-01-01T06:12:41;15.30;;;3.37;;
11572;SDS011;5842;52.426;4.886;2023-01-01T06:15:08;17.37;;;3.47;;
11572;SDS011;5842;52.426;4.886;2023-01-01T06:17:36;16.83;;;3.47;;
11572;SDS011;5842;52.426;4.886;2023-01-01T06:20:05;18.37;;;3.40;;
11572;SDS011;5842;52.426;4.886;2023-01-01T06:22:34;17.40;;;3.53;;
11572;SDS011;5842;52.426;4.886;2023-01-01T06:25:02;15.30;;;3.73;;
11572;SDS011;5842;52.426;4.886;2023-01-01T06:27:30;20.97;;;4.03;;
11572;SDS011;5842;52.426;4.886;2023-01-01T06:29:58;15.27;;;3.67;;
11572;SDS011;5842;52.426;4.886;2023-01-01T06:32:25;12.87;;;3.10;;
11572;SDS011;5842;52.426;4.886;2023-01-01T06:34:53;18.57;;;3.83;;
11572;SDS011;5842;52.426;4.886;2023-01-01T06:37:23;18.80;;;3.60;;
11572;SDS011;5842;52.426;4.886;2023-01-01T06:39:50;19.20;;;3.63;;
11572;SDS011;5842;52.426;4.886;2023-01-01T06:42:18;17.87;;;3.80;;
11572;SDS011;5842;52.426;4.886;2023-01-01T06:44:45;22.60;;;3.60;;
11572;SDS011;5842;52.426;4.886;2023-01-01T06:47:12;21.80;;;4.10;;
11572;SDS011;5842;52.426;4.886;2023-01-01T06:49:40;23.87;;;3.93;;
11572;SDS011;5842;52.426;4.886;2023-01-01T06:52:07;19.27;;;3.43;;
11572;SDS011;5842;52.426;4.886;2023-01-01T06:54:36;20.27;;;3.47;;
11572;SDS011;5842;52.426;4.886;2023-01-01T06:57:03;22.63;;;3.20;;
11572;SDS011;5842;52.426;4.886;2023-01-01T06:59:31;17.73;;;3.87;;
11572;SDS011;5842;52.426;4.886;2023-01-01T07:01:58;19.77;;;3.70;;
11572;SDS011;5842;52.426;4.886;2023-01-01T07:04:25;16.30;;;3.83;;
11572;SDS011;5842;52.426;4.886;2023-01-01T07:06:53;20.80;;;3.70;;
11572;SDS011;5842;52.426;4.886;2023-01-01T07:09:21;16.67;;;3.53;;
11572;SDS011;5842;52.426;4.886;2023-01-01T07:11:50;16.70;;;3.67;;
11572;SDS011;5842;52.426;4.886;2023-01-01T07:14:17;18.33;;;3.50;;
11572;SDS011;5842;52.426;4.886;2023-01-01T07:16:44;21.93;;;4.57;;
11572;SDS011;5842;52.426;4.886;2023-01-01T07:19:12;20.57;;;3.77;;
11572;SDS011;5842;52.426;4.886;2023-01-01T07:37:59;20.73;;;3.13;;
11572;SDS011;5842;52.426;4.886;2023-01-01T07:40:27;21.67;;;3.60;;
11572;SDS011;5842;52.426;4.886;2023-01-01T07:42:54;21.17;;;3.70;;
11572;SDS011;5842;52.426;4.886;2023-01-01T07:45:22;19.57;;;3.73;;
11572;SDS011;5842;52.426;4.886;2023-01-01T07:47:49;20.27;;;3.40;;
11572;SDS011;5842;52.426;4.886;2023-01-01T07:50:17;20.70;;;3.93;;
11572;SDS011;5842;52.426;4.886;2023-01-01T07:52:45;20.97;;;3.40;;
11572;SDS011;5842;52.426;4.886;2023-01-01T07:55:14;18.43;;;3.60;;
11572;SDS011;5842;52.426;4.886;2023-01-01T07:57:42;13.33;;;3.33;;
11572;SDS011;5842;52.426;4.886;2023-01-01T08:00:10;17.73;;;3.30;;
11572;SDS011;5842;52.426;4.886;2023-01-01T08:02:38;16.63;;;3.20;;
11572;SDS011;5842;52.426;4.886;2023-01-01T08:05:06;16.93;;;3.23;;
11572;SDS011;5842;52.426;4.886;2023-01-01T08:07:33;18.20;;;3.43;;
11572;SDS011;5842;52.426;4.886;2023-01-01T08:10:01;21.30;;;3.60;;
11572;SDS011;5842;52.426;4.886;2023-01-01T08:12:29;12.80;;;3.30;;
11572;SDS011;5842;52.426;4.886;2023-01-01T08:14:57;19.13;;;3.23;;
11572;SDS011;5842;52.426;4.886;2023-01-01T08:17:24;16.70;;;3.13;;
11572;SDS011;5842;52.426;4.886;2023-01-01T08:19:52;18.53;;;3.47;;
11572;SDS011;5842;52.426;4.886;2023-01-01T08:22:19;19.43;;;3.33;;
11572;SDS011;5842;52.426;4.886;2023-01-01T08:24:46;15.60;;;3.13;;
11572;SDS011;5842;52.426;4.886;2023-01-01T08:27:14;17.73;;;2.90;;
11572;SDS011;5842;52.426;4.886;2023-01-01T08:29:43;15.53;;;3.17;;
11572;SDS011;5842;52.426;4.886;2023-01-01T08:32:11;13.90;;;3.03;;
11572;SDS011;5842;52.426;4.886;2023-01-01T08:34:39;19.70;;;3.77;;
11572;SDS011;5842;52.426;4.886;2023-01-01T08:37:08;17.67;;;3.13;;
11572;SDS011;5842;52.426;4.886;2023-01-01T08:39:37;12.27;;;3.03;;
11572;SDS011;5842;52.426;4.886;2023-01-01T08:42:04;20.63;;;3.47;;
11572;SDS011;5842;52.426;4.886;2023-01-01T08:44:32;16.77;;;3.27;;
11572;SDS011;5842;52.426;4.886;2023-01-01T08:47:01;14.60;;;2.97;;
11572;SDS011;5842;52.426;4.886;2023-01-01T08:49:28;14.93;;;2.90;;
11572;SDS011;5842;52.426;4.886;2023-01-01T08:51:56;13.53;;;3.17;;
11572;SDS011;5842;52.426;4.886;2023-01-01T08:54:24;15.43;;;3.57;;
11572;SDS011;5842;52.426;4.886;2023-01-01T08:56:52;12.30;;;2.80;;
11572;SDS011;5842;52.426;4.886;2023-01-01T08:59:19;17.23;;;3.00;;
11572;SDS011;5842;52.426;4.886;2023-01-01T09:01:46;13.80;;;2.73;;
11572;SDS011;5842;52.426;4.886;2023-01-01T09:04:15;12.50;;;3.00;;
11572;SDS011;5842;52.426;4.886;2023-01-01T09:06:43;15.87;;;3.03;;
11572;SDS011;5842;52.426;4.886;2023-01-01T09:09:11;12.07;;;2.57;;
11572;SDS011;5842;52.426;4.886;2023-01-01T09:11:38;15.03;;;3.27;;
11572;SDS011;5842;52.426;4.886;2023-01-01T09:14:06;14.50;;;2.70;;
11572;SDS011;5842;52.426;4.886;2023-01-01T09:16:33;12.37;;;2.80;;
11572;SDS011;5842;52.426;4.886;2023-01-01T09:19:01;16.40;;;3.07;;
11572;SDS011;5842;52.426;4.886;2023-01-01T09:21:30;13.70;;;3.73;;
11572;SDS011;5842;52.426;4.886;2023-01-01T09:23:57;13.63;;;3.03;;
11572;SDS011;5842;52.426;4.886;2023-01-01T09:26:24;16.93;;;3.10;;
11572;SDS011;5842;52.426;4.886;2023-01-01T09:28:52;15.77;;;3.10;;
11572;SDS011;5842;52.426;4.886;2023-01-01T09:31:19;13.10;;;3.03;;
11572;SDS011;5842;52.426;4.886;2023-01-01T09:33:46;11.57;;;2.77;;
11572;SDS011;5842;52.426;4.886;2023-01-01T09:36:15;10.23;;;2.87;;
11572;SDS011;5842;52.426;4.886;2023-01-01T09:38:53;14.13;;;3.27;;
11572;SDS011;5842;52.426;4.886;2023-01-01T09:41:23;16.07;;;3.00;;
11572;SDS011;5842;52.426;4.886;2023-01-01T09:43:54;18.53;;;3.30;;
11572;SDS011;5842;52.426;4.886;2023-01-01T09:46:25;15.07;;;3.60;;
11572;SDS011;5842;52.426;4.886;2023-01-01T09:48:53;13.67;;;2.90;;
11572;SDS011;5842;52.426;4.886;2023-01-01T09:51:22;11.70;;;2.97;;
11572;SDS011;5842;52.426;4.886;2023-01-01T09:53:52;17.73;;;3.20;;
11572;SDS011;5842;52.426;4.886;2023-01-01T09:56:22;14.33;;;2.53;;
11572;SDS011;5842;52.426;4.886;2023-01-01T09:58:50;9.70;;;2.83;;
11572;SDS011;5842;52.426;4.886;2023-01-01T10:01:20;13.63;;;3.47;;
11572;SDS011;5842;52.426;4.886;2023-01-01T10:03:53;11.20;;;2.70;;
11572;SDS011;5842;52.426;4.886;2023-01-01T10:06:27;12.97;;;3.03;;
11572;SDS011;5842;52.426;4.886;2023-01-01T10:08:58;16.53;;;3.00;;
11572;SDS011;5842;52.426;4.886;2023-01-01T10:11:30;19.13;;;3.27;;
11572;SDS011;5842;52.426;4.886;2023-01-01T10:14:03;12.93;;;2.80;;
11572;SDS011;5842;52.426;4.886;2023-01-01T10:16:32;13.60;;;2.73;;
11572;SDS011;5842;52.426;4.886;2023-01-01T10:19:04;11.90;;;2.97;;
11572;SDS011;5842;52.426;4.886;2023-01-01T10:21:35;15.33;;;3.50;;
11572;SDS011;5842;52.426;4.886;2023-01-01T10:24:04;12.23;;;2.87;;
11572;SDS011;5842;52.426;4.886;2023-01-01T10:26:33;12.53;;;3.00;;
11572;SDS011;5842;52.426;4.886;2023-01-01T10:29:04;12.00;;;3.00;;
11572;SDS011;5842;52.426;4.886;2023-01-01T10:31:34;15.23;;;3.07;;
11572;SDS011;5842;52.426;4.886;2023-01-01T10:34:07;11.60;;;2.40;;
11572;SDS011;5842;52.426;4.886;2023-01-01T10:36:38;13.40;;;2.50;;
11572;SDS011;5842;52.426;4.886;2023-01-01T10:39:05;13.33;;;2.87;;
11572;SDS011;5842;52.426;4.886;2023-01-01T10:41:35;10.57;;;2.63;;
11572;SDS011;5842;52.426;4.886;2023-01-01T10:44:02;11.87;;;3.20;;
11572;SDS011;5842;52.426;4.886;2023-01-01T10:46:30;11.63;;;2.97;;
11572;SDS011;5842;52.426;4.886;2023-01-01T10:49:06;10.87;;;2.33;;
11572;SDS011;5842;52.426;4.886;2023-01-01T10:51:36;9.53;;;2.40;;
11572;SDS011;5842;52.426;4.886;2023-01-01T10:54:04;15.20;;;2.90;;
11572;SDS011;5842;52.426;4.886;2023-01-01T10:56:38;11.03;;;2.70;;
11572;SDS011;5842;52.426;4.886;2023-01-01T10:59:37;9.17;;;2.23;;
11572;SDS011;5842;52.426;4.886;2023-01-01T11:02:23;9.93;;;2.37;;
11572;SDS011;5842;52.426;4.886;2023-01-01T11:04:52;9.13;;;2.10;;
11572;SDS011;5842;52.426;4.886;2023-01-01T11:07:23;10.97;;;2.40;;
11572;SDS011;5842;52.426;4.886;2023-01-01T11:09:51;11.23;;;2.43;;
11572;SDS011;5842;52.426;4.886;2023-01-01T11:12:23;10.20;;;2.40;;
11572;SDS011;5842;52.426;4.886;2023-01-01T11:14:53;14.77;;;3.00;;
11572;SDS011;5842;52.426;4.886;2023-01-01T11:17:24;9.20;;;2.90;;
11572;SDS011;5842;52.426;4.886;2023-01-01T11:19:52;12.13;;;2.50;;
11572;SDS011;5842;52.426;4.886;2023-01-01T11:22:36;14.27;;;3.03;;
11572;SDS011;5842;52.426;4.886;2023-01-01T11:25:15;11.67;;;2.90;;
11572;SDS011;5842;52.426;4.886;2023-01-01T11:27:45;13.80;;;2.57;;
11572;SDS011;5842;52.426;4.886;2023-01-01T11:30:17;10.77;;;2.87;;
11572;SDS011;5842;52.426;4.886;2023-01-01T11:32:45;11.27;;;2.50;;
11572;SDS011;5842;52.426;4.886;2023-01-01T11:35:14;12.73;;;3.20;;
11572;SDS011;5842;52.426;4.886;2023-01-01T11:37:43;15.47;;;3.40;;
11572;SDS011;5842;52.426;4.886;2023-01-01T11:40:14;12.77;;;3.07;;
11572;SDS011;5842;52.426;4.886;2023-01-01T11:42:45;13.47;;;3.30;;
11572;SDS011;5842;52.426;4.886;2023-01-01T11:45:15;14.23;;;3.40;;
11572;SDS011;5842;52.426;4.886;2023-01-01T11:47:48;12.73;;;2.73;;
11572;SDS011;5842;52.426;4.886;2023-01-01T11:50:18;13.17;;;2.60;;
11572;SDS011;5842;52.426;4.886;2023-01-01T11:52:49;14.43;;;2.90;;
11572;SDS011;5842;52.426;4.886;2023-01-01T11:55:19;10.20;;;2.60;;
11572;SDS011;5842;52.426;4.886;2023-01-01T11:57:53;18.97;;;3.43;;
11572;SDS011;5842;52.426;4.886;2023-01-01T12:00:23;13.87;;;3.27;;
11572;SDS011;5842;52.426;4.886;2023-01-01T12:02:54;12.37;;;3.00;;
11572;SDS011;5842;52.426;4.886;2023-01-01T12:05:23;11.23;;;2.77;;
11572;SDS011;5842;52.426;4.886;2023-01-01T12:07:51;9.87;;;3.00;;
11572;SDS011;5842;52.426;4.886;2023-01-01T12:10:20;14.33;;;2.73;;
11572;SDS011;5842;52.426;4.886;2023-01-01T12:12:49;11.53;;;2.70;;
11572;SDS011;5842;52.426;4.886;2023-01-01T12:15:22;9.77;;;2.43;;
11572;SDS011;5842;52.426;4.886;2023-01-01T12:17:53;11.20;;;2.33;;
11572;SDS011;5842;52.426;4.886;2023-01-01T12:20:22;10.70;;;2.97;;
11572;SDS011;5842;52.426;4.886;2023-01-01T12:22:52;12.43;;;3.00;;
11572;SDS011;5842;52.426;4.886;2023-01-01T12:25:21;11.67;;;3.10;;
11572;SDS011;5842;52.426;4.886;2023-01-01T12:27:54;10.83;;;2.70;;
11572;SDS011;5842;52.426;4.886;2023-01-01T12:30:26;14.67;;;3.10;;
11572;SDS011;5842;52.426;4.886;2023-01-01T12:33:05;12.63;;;2.73;;
11572;SDS011;5842;52.426;4.886;2023-01-01T12:35:48;10.43;;;2.70;;
11572;SDS011;5842;52.426;4.886;2023-01-01T12:38:22;12.13;;;2.70;;
11572;SDS011;5842;52.426;4.886;2023-01-01T12:40:52;12.50;;;2.70;;
11572;SDS011;5842;52.426;4.886;2023-01-01T12:43:25;21.50;;;3.53;;
11572;SDS011;5842;52.426;4.886;2023-01-01T12:46:08;11.43;;;2.93;;
11572;SDS011;5842;52.426;4.886;2023-01-01T12:48:41;13.37;;;3.00;;
11572;SDS011;5842;52.426;4.886;2023-01-01T12:51:16;13.60;;;2.87;;
11572;SDS011;5842;52.426;4.886;2023-01-01T12:53:50;12.67;;;3.17;;
11572;SDS011;5842;52.426;4.886;2023-01-01T12:56:25;11.40;;;2.67;;
11572;SDS011;5842;52.426;4.886;2023-01-01T12:58:56;9.83;;;2.60;;
11572;SDS011;5842;52.426;4.886;2023-01-01T13:01:26;13.07;;;3.23;;
11572;SDS011;5842;52.426;4.886;2023-01-01T13:03:55;14.77;;;2.90;;
11572;SDS011;5842;52.426;4.886;2023-01-01T13:06:24;15.73;;;3.63;;
11572;SDS011;5842;52.426;4.886;2023-01-01T13:08:55;12.00;;;3.33;;
11572;SDS011;5842;52.426;4.886;2023-01-01T13:11:25;11.80;;;2.83;;
11572;SDS011;5842;52.426;4.886;2023-01-01T13:13:54;16.07;;;2.90;;
11572;SDS011;5842;52.426;4.886;2023-01-01T13:16:33;9.33;;;2.60;;
11572;SDS011;5842;52.426;4.886;2023-01-01T13:19:01;13.67;;;2.90;;
11572;SDS011;5842;52.426;4.886;2023-01-01T13:21:29;14.10;;;3.27;;
11572;SDS011;5842;52.426;4.886;2023-01-01T13:23:58;15.40;;;3.27;;
11572;SDS011;5842;52.426;4.886;2023-01-01T13:26:36;15.60;;;3.27;;
11572;SDS011;5842;52.426;4.886;2023-01-01T13:32:04;14.27;;;3.40;;
11572;SDS011;5842;52.426;4.886;2023-01-01T13:34:32;9.83;;;3.10;;
11572;SDS011;5842;52.426;4.886;2023-01-01T13:39:50;18.30;;;3.90;;
11572;SDS011;5842;52.426;4.886;2023-01-01T13:42:37;16.23;;;3.27;;
11572;SDS011;5842;52.426;4.886;2023-01-01T13:45:07;14.10;;;2.93;;
11572;SDS011;5842;52.426;4.886;2023-01-01T13:47:46;18.03;;;3.23;;
11572;SDS011;5842;52.426;4.886;2023-01-01T13:50:18;17.50;;;3.17;;
11572;SDS011;5842;52.426;4.886;2023-01-01T13:55:50;15.57;;;3.10;;
11572;SDS011;5842;52.426;4.886;2023-01-01T14:03:51;16.13;;;3.40;;
11572;SDS011;5842;52.426;4.886;2023-01-01T14:06:23;10.83;;;2.90;;
11572;SDS011;5842;52.426;4.886;2023-01-01T14:08:59;11.63;;;3.30;;
11572;SDS011;5842;52.426;4.886;2023-01-01T14:11:27;14.37;;;3.57;;
11572;SDS011;5842;52.426;4.886;2023-01-01T14:13:56;13.33;;;2.90;;
11572;SDS011;5842;52.426;4.886;2023-01-01T14:16:24;18.17;;;3.73;;
11572;SDS011;5842;52.426;4.886;2023-01-01T14:18:57;13.47;;;3.20;;
11572;SDS011;5842;52.426;4.886;2023-01-01T14:21:29;14.30;;;3.13;;
11572;SDS011;5842;52.426;4.886;2023-01-01T14:23:58;13.70;;;3.43;;
11572;SDS011;5842;52.426;4.886;2023-01-01T14:26:27;15.33;;;3.23;;
11572;SDS011;5842;52.426;4.886;2023-01-01T14:28:56;13.10;;;3.00;;
11572;SDS011;5842;52.426;4.886;2023-01-01T14:31:25;14.67;;;3.43;;
11572;SDS011;5842;52.426;4.886;2023-01-01T14:33:53;16.10;;;3.07;;
11572;SDS011;5842;52.426;4.886;2023-01-01T14:36:23;13.43;;;3.47;;
11572;SDS011;5842;52.426;4.886;2023-01-01T14:38:51;12.83;;;3.57;;
11572;SDS011;5842;52.426;4.886;2023-01-01T14:41:21;16.93;;;3.90;;
11572;SDS011;5842;52.426;4.886;2023-01-01T14:43:51;12.63;;;3.50;;
11572;SDS011;5842;52.426;4.886;2023-01-01T14:46:19;15.07;;;3.03;;
11572;SDS011;5842;52.426;4.886;2023-01-01T14:48:49;15.73;;;3.23;;
11572;SDS011;5842;52.426;4.886;2023-01-01T14:51:18;13.87;;;3.13;;
11572;SDS011;5842;52.426;4.886;2023-01-01T14:53:50;12.10;;;3.10;;
11572;SDS011;5842;52.426;4.886;2023-01-01T14:56:25;13.63;;;3.67;;
11572;SDS011;5842;52.426;4.886;2023-01-01T14:58:53;14.20;;;3.67;;
11572;SDS011;5842;52.426;4.886;2023-01-01T15:01:23;12.53;;;2.70;;
11572;SDS011;5842;52.426;4.886;2023-01-01T15:03:56;12.57;;;3.03;;
11572;SDS011;5842;52.426;4.886;2023-01-01T15:06:24;11.90;;;3.13;;
11572;SDS011;5842;52.426;4.886;2023-01-01T15:09:04;11.90;;;3.10;;
11572;SDS011;5842;52.426;4.886;2023-01-01T15:11:32;11.93;;;3.07;;
11572;SDS011;5842;52.426;4.886;2023-01-01T15:14:00;13.40;;;3.50;;
11572;SDS011;5842;52.426;4.886;2023-01-01T15:16:28;14.17;;;3.40;;
11572;SDS011;5842;52.426;4.886;2023-01-01T15:18:56;16.53;;;3.83;;
11572;SDS011;5842;52.426;4.886;2023-01-01T15:21:31;13.67;;;3.80;;
11572;SDS011;5842;52.426;4.886;2023-01-01T15:24:09;12.40;;;3.70;;
11572;SDS011;5842;52.426;4.886;2023-01-01T15:26:39;15.83;;;3.87;;
11572;SDS011;5842;52.426;4.886;2023-01-01T15:29:08;11.40;;;3.33;;
11572;SDS011;5842;52.426;4.886;2023-01-01T15:31:37;16.50;;;4.40;;
11572;SDS011;5842;52.426;4.886;2023-01-01T15:34:05;15.70;;;4.33;;
11572;SDS011;5842;52.426;4.886;2023-01-01T15:36:42;13.63;;;3.87;;
11572;SDS011;5842;52.426;4.886;2023-01-01T15:39:12;18.43;;;4.37;;
11572;SDS011;5842;52.426;4.886;2023-01-01T15:41:41;16.40;;;4.40;;
11572;SDS011;5842;52.426;4.886;2023-01-01T15:44:19;10.93;;;4.00;;
11572;SDS011;5842;52.426;4.886;2023-01-01T15:46:49;16.93;;;4.50;;
11572;SDS011;5842;52.426;4.886;2023-01-01T15:49:24;13.60;;;3.50;;
11572;SDS011;5842;52.426;4.886;2023-01-01T15:51:52;12.90;;;3.97;;
11572;SDS011;5842;52.426;4.886;2023-01-01T15:54:22;13.00;;;3.77;;